createdAt,value
2022-08-25T00:00:20.523Z,2.27
2022-08-25T00:02:55.233Z,2.53
2022-08-25T00:05:29.170Z,2.70
2022-08-25T00:07:59.290Z,2.43
2022-08-25T00:10:27.598Z,2.20
2022-08-25T00:12:55.947Z,2.60
2022-08-25T00:15:24.269Z,2.30
2022-08-25T00:17:52.578Z,2.43
2022-08-25T00:20:21.134Z,2.40
2022-08-25T00:22:49.855Z,2.20
2022-08-25T00:25:20.392Z,2.10
2022-08-25T00:27:48.571Z,2.20
2022-08-25T00:30:17.339Z,2.20
2022-08-25T00:32:48.919Z,2.40
2022-08-25T00:35:24.641Z,2.33
2022-08-25T00:37:52.724Z,2.10
2022-08-25T00:40:23.488Z,2.67
2022-08-25T00:42:51.703Z,2.37
2022-08-25T00:45:20.440Z,2.23
2022-08-25T00:47:48.767Z,1.90
2022-08-25T00:50:18.282Z,2.20
2022-08-25T00:52:51.939Z,1.97
2022-08-25T00:55:26.010Z,2.50
2022-08-25T00:58:01.087Z,2.20
2022-08-25T01:00:34.146Z,2.47
2022-08-25T01:03:02.576Z,2.30
2022-08-25T01:05:31.665Z,2.23
2022-08-25T01:08:06.654Z,2.23
2022-08-25T01:10:41.288Z,2.10
2022-08-25T01:13:16.726Z,2.00
2022-08-25T01:15:46.356Z,2.30
2022-08-25T01:18:15.773Z,2.07
2022-08-25T01:20:44.197Z,2.20
2022-08-25T01:23:13.691Z,2.23
2022-08-25T01:25:52.522Z,1.90
2022-08-25T01:28:22.050Z,2.00
2022-08-25T01:30:50.491Z,2.30
2022-08-25T01:33:18.617Z,2.20
2022-08-25T01:35:47.408Z,2.50
2022-08-25T01:38:17.717Z,2.10
2022-08-25T01:40:45.947Z,2.13
2022-08-25T01:43:23.196Z,2.20
2022-08-25T01:45:51.336Z,2.30
2022-08-25T01:48:20.506Z,2.20
2022-08-25T01:50:48.545Z,2.20
2022-08-25T01:53:27.871Z,2.10
2022-08-25T01:56:02.762Z,1.97
2022-08-25T01:58:35.066Z,2.17
2022-08-25T02:01:08.093Z,2.20
2022-08-25T02:03:42.127Z,2.40
2022-08-25T02:06:13.813Z,2.13
2022-08-25T02:08:43.733Z,1.93
2022-08-25T02:11:13.715Z,2.27
2022-08-25T02:13:43.473Z,2.33
2022-08-25T02:16:20.611Z,2.20
2022-08-25T02:18:49.081Z,2.33
2022-08-25T02:21:17.503Z,2.47
2022-08-25T02:23:46.968Z,2.40
2022-08-25T02:26:16.796Z,2.40
2022-08-25T02:28:47.325Z,1.87
2022-08-25T02:31:16.511Z,2.40
2022-08-25T02:33:44.911Z,2.07
2022-08-25T02:36:13.625Z,2.50
2022-08-25T02:38:41.770Z,2.17
2022-08-25T02:41:14.188Z,2.30
2022-08-25T02:43:44.035Z,2.27
2022-08-25T02:46:13.816Z,2.40
2022-08-25T02:48:42.546Z,2.17
2022-08-25T02:51:12.324Z,2.50
2022-08-25T02:53:42.856Z,2.00
2022-08-25T02:56:14.845Z,2.40
2022-08-25T02:58:44.034Z,2.40
2022-08-25T03:01:12.505Z,2.07
2022-08-25T03:03:43.507Z,2.10
2022-08-25T03:06:13.513Z,2.13
2022-08-25T03:08:42.575Z,2.37
2022-08-25T03:11:12.894Z,2.17
2022-08-25T03:13:41.153Z,2.40
2022-08-25T03:16:11.405Z,2.20
2022-08-25T03:18:43.146Z,2.23
2022-08-25T03:21:13.387Z,2.23
2022-08-25T03:23:44.591Z,2.50
2022-08-25T03:26:31.717Z,2.07
2022-08-25T03:29:05.019Z,2.30
2022-08-25T03:31:34.194Z,2.50
2022-08-25T03:34:02.885Z,2.40
2022-08-25T03:36:31.127Z,2.30
2022-08-25T03:39:00.558Z,2.60
2022-08-25T03:41:32.625Z,2.27
2022-08-25T03:44:02.160Z,2.17
2022-08-25T03:46:33.492Z,2.30
2022-08-25T03:49:03.932Z,2.17
2022-08-25T03:51:35.990Z,2.40
2022-08-25T03:54:05.414Z,2.67
2022-08-25T03:56:35.546Z,2.20
2022-08-25T03:59:06.058Z,2.47
2022-08-25T04:01:35.353Z,2.60
2022-08-25T04:04:03.842Z,2.33
2022-08-25T04:06:32.097Z,2.63
2022-08-25T04:09:00.228Z,2.50
2022-08-25T04:11:29.265Z,2.10
2022-08-25T04:14:02.307Z,2.20
2022-08-25T04:16:35.090Z,2.60
2022-08-25T04:19:07.871Z,2.77
2022-08-25T04:21:36.797Z,2.30
2022-08-25T04:24:06.391Z,2.30
2022-08-25T04:26:38.077Z,2.20
2022-08-25T04:29:10.226Z,2.07
2022-08-25T04:31:41.785Z,2.70
2022-08-25T04:34:28.568Z,2.03
2022-08-25T04:36:58.465Z,2.50
2022-08-25T04:39:26.549Z,2.40
2022-08-25T04:41:54.583Z,2.47
2022-08-25T04:44:24.010Z,2.37
2022-08-25T04:46:52.084Z,2.43
2022-08-25T04:49:20.286Z,2.70
2022-08-25T04:51:48.341Z,2.53
2022-08-25T04:54:21.569Z,2.40
2022-08-25T04:56:50.679Z,2.53
2022-08-25T04:59:29.943Z,2.30
2022-08-25T05:02:02.388Z,2.43
2022-08-25T05:04:32.523Z,2.70
2022-08-25T05:07:01.330Z,2.87
2022-08-25T05:09:32.417Z,2.77
2022-08-25T05:12:02.374Z,2.60
2022-08-25T05:14:33.382Z,2.97
2022-08-25T05:17:02.045Z,2.63
2022-08-25T05:19:30.239Z,2.80
2022-08-25T05:21:58.394Z,2.77
2022-08-25T05:24:26.956Z,2.80
2022-08-25T05:26:55.275Z,2.77
2022-08-25T05:29:23.546Z,3.33
2022-08-25T05:31:54.009Z,3.07
2022-08-25T05:34:22.384Z,3.13
2022-08-25T05:36:51.492Z,3.37
2022-08-25T05:39:19.723Z,2.90
2022-08-25T05:41:47.823Z,2.90
2022-08-25T05:44:20.928Z,2.80
2022-08-25T05:46:52.523Z,2.83
2022-08-25T05:49:20.836Z,2.73
2022-08-25T05:51:48.987Z,3.17
2022-08-25T05:54:17.287Z,2.67
2022-08-25T05:56:46.325Z,2.67
2022-08-25T05:59:14.463Z,3.10
2022-08-25T06:02:00.313Z,2.80
2022-08-25T06:04:29.787Z,3.50
2022-08-25T06:06:57.887Z,2.97
2022-08-25T06:09:26.519Z,2.60
2022-08-25T06:11:55.430Z,2.77
2022-08-25T06:14:24.893Z,3.40
2022-08-25T06:16:53.465Z,3.13
2022-08-25T06:19:23.354Z,2.93
2022-08-25T06:21:55.765Z,3.20
2022-08-25T06:24:24.540Z,3.87
2022-08-25T06:26:52.727Z,4.13
2022-08-25T06:29:21.304Z,4.03
2022-08-25T06:31:50.277Z,3.47
2022-08-25T06:34:19.521Z,3.60
2022-08-25T06:36:53.537Z,3.43
2022-08-25T06:39:21.881Z,3.50
2022-08-25T06:41:53.706Z,3.80
2022-08-25T06:44:22.279Z,3.87
2022-08-25T06:46:51.497Z,4.47
2022-08-25T06:49:19.713Z,3.37
2022-08-25T06:51:48.001Z,4.30
2022-08-25T06:54:17.642Z,4.20
2022-08-25T06:56:45.707Z,4.07
2022-08-25T06:59:14.027Z,3.70
2022-08-25T07:01:42.266Z,3.50
2022-08-25T07:04:13.191Z,3.50
2022-08-25T07:06:42.820Z,4.20
2022-08-25T07:09:13.245Z,4.00
2022-08-25T07:11:45.232Z,4.10
2022-08-25T07:14:16.841Z,3.93
2022-08-25T07:16:49.394Z,3.70
2022-08-25T07:19:21.124Z,4.10
2022-08-25T07:21:54.144Z,4.33
2022-08-25T07:24:23.315Z,3.90
2022-08-25T07:26:53.142Z,3.77
2022-08-25T07:29:31.879Z,4.03
2022-08-25T07:32:00.767Z,3.43
2022-08-25T07:34:52.367Z,4.03
2022-08-25T07:40:14.867Z,4.00
2022-08-25T07:42:44.972Z,3.50
2022-08-25T07:45:15.484Z,3.77
2022-08-25T07:47:45.476Z,3.60
2022-08-25T07:50:14.747Z,3.80
2022-08-25T07:52:43.307Z,3.67
2022-08-25T07:55:12.033Z,3.43
2022-08-25T07:57:49.901Z,3.80
2022-08-25T08:00:27.511Z,3.57
2022-08-25T08:02:56.066Z,3.33
2022-08-25T08:05:25.142Z,3.87
2022-08-25T08:07:53.927Z,3.60
2022-08-25T08:13:17.775Z,3.30
2022-08-25T08:15:47.395Z,3.23
2022-08-25T08:18:16.296Z,3.93
2022-08-25T08:20:46.001Z,3.90
2022-08-25T08:23:38.356Z,3.80
2022-08-25T08:26:06.889Z,3.23
2022-08-25T08:28:36.354Z,3.33
2022-08-25T08:31:05.703Z,3.23
2022-08-25T08:33:40.757Z,3.23
2022-08-25T08:36:12.536Z,3.80
2022-08-25T08:38:42.703Z,3.03
2022-08-25T08:42:09.661Z,2.93
2022-08-25T08:44:57.069Z,3.27
2022-08-25T08:47:38.315Z,2.93
2022-08-25T08:50:23.931Z,3.10
2022-08-25T08:53:03.488Z,3.67
2022-08-25T08:55:38.123Z,3.23
2022-08-25T08:58:10.392Z,3.03
2022-08-25T09:00:52.074Z,4.03
2022-08-25T09:03:34.651Z,3.20
2022-08-25T09:06:08.764Z,3.30
2022-08-25T09:08:44.492Z,3.50
2022-08-25T09:11:24.082Z,3.40
2022-08-25T09:14:13.539Z,3.50
2022-08-25T09:16:56.144Z,3.10
2022-08-25T09:20:00.106Z,3.10
2022-08-25T09:22:46.826Z,2.93
2022-08-25T09:25:48.799Z,2.93
2022-08-25T09:28:22.095Z,2.40
2022-08-25T09:30:59.084Z,2.83
2022-08-25T09:33:33.660Z,2.90
2022-08-25T09:36:08.823Z,3.50
2022-08-25T09:38:38.361Z,2.80
2022-08-25T09:41:06.966Z,3.30
2022-08-25T09:43:37.952Z,3.40
2022-08-25T09:46:13.975Z,3.10
2022-08-25T09:48:56.620Z,3.07
2022-08-25T09:51:28.659Z,3.00
2022-08-25T09:54:03.499Z,2.87
2022-08-25T09:56:51.237Z,3.00
2022-08-25T09:59:34.297Z,3.07
2022-08-25T10:02:06.727Z,3.50
2022-08-25T10:04:40.010Z,2.87
2022-08-25T10:07:26.861Z,2.60
2022-08-25T10:09:59.869Z,2.73
2022-08-25T10:12:37.624Z,2.87
2022-08-25T10:15:29.955Z,3.00
2022-08-25T10:18:21.546Z,3.07
2022-08-25T10:21:09.369Z,2.60
2022-08-25T10:23:44.770Z,3.00
2022-08-25T10:26:30.341Z,2.77
2022-08-25T10:29:18.193Z,3.10
2022-08-25T10:31:56.011Z,2.40
2022-08-25T10:34:38.065Z,2.63
2022-08-25T10:37:19.714Z,2.90
2022-08-25T10:39:58.966Z,2.90
2022-08-25T10:42:37.633Z,2.60
2022-08-25T10:45:39.255Z,3.10
2022-08-25T10:48:36.771Z,2.80
2022-08-25T10:51:24.876Z,2.53
2022-08-25T10:54:03.631Z,2.57
2022-08-25T10:56:40.956Z,2.80
2022-08-25T10:59:31.602Z,2.67
2022-08-25T11:02:33.404Z,2.83
2022-08-25T11:05:08.040Z,3.07
2022-08-25T11:07:42.494Z,2.60
2022-08-25T11:10:20.053Z,2.50
2022-08-25T11:12:55.784Z,2.60
2022-08-25T11:15:29.828Z,2.10
2022-08-25T11:18:03.992Z,2.43
2022-08-25T11:20:39.502Z,2.00
2022-08-25T11:23:15.883Z,2.37
2022-08-25T11:25:48.886Z,2.40
2022-08-25T11:28:27.289Z,2.80
2022-08-25T11:30:59.952Z,2.30
2022-08-25T11:33:31.678Z,2.43
2022-08-25T11:36:07.004Z,2.47
2022-08-25T11:38:53.963Z,2.40
2022-08-25T11:41:34.123Z,2.13
2022-08-25T11:44:50.125Z,2.73
2022-08-25T11:47:48.166Z,3.23
2022-08-25T11:50:31.575Z,2.40
2022-08-25T11:53:26.560Z,2.67
2022-08-25T11:55:58.833Z,2.40
2022-08-25T11:58:49.697Z,2.20
2022-08-25T12:02:28.914Z,2.10
2022-08-25T12:04:57.642Z,2.67
2022-08-25T12:07:30.961Z,2.23
2022-08-25T12:10:20.934Z,1.80
2022-08-25T12:13:21.937Z,1.87
2022-08-25T12:16:02.416Z,2.20
2022-08-25T12:18:45.988Z,2.20
2022-08-25T12:21:33.610Z,2.40
2022-08-25T12:24:15.300Z,2.50
2022-08-25T12:26:59.094Z,2.53
2022-08-25T12:29:34.074Z,2.97
2022-08-25T12:32:29.247Z,2.80
2022-08-25T12:35:29.924Z,2.60
2022-08-25T12:38:06.410Z,2.40
2022-08-25T12:40:40.365Z,2.77
2022-08-25T12:43:14.155Z,2.50
2022-08-25T12:45:50.102Z,2.87
2022-08-25T12:49:05.318Z,2.87
2022-08-25T12:51:54.969Z,2.77
2022-08-25T12:54:48.332Z,2.53
2022-08-25T12:57:41.070Z,2.63
2022-08-25T13:00:20.148Z,2.70
2022-08-25T13:06:41.097Z,2.80
2022-08-25T13:10:04.205Z,2.50
2022-08-25T13:12:40.118Z,2.70
2022-08-25T13:15:14.701Z,2.63
2022-08-25T13:17:43.765Z,2.53
2022-08-25T13:20:23.710Z,2.47
2022-08-25T13:23:00.272Z,2.20
2022-08-25T13:25:33.223Z,2.43
2022-08-25T13:28:06.151Z,2.20
2022-08-25T13:30:39.168Z,2.00
2022-08-25T13:33:21.943Z,1.93
2022-08-25T13:36:17.606Z,1.90
2022-08-25T13:38:50.362Z,2.10
2022-08-25T13:41:29.602Z,1.90
2022-08-25T13:44:02.541Z,2.40
2022-08-25T13:46:31.786Z,2.07
2022-08-25T13:49:11.189Z,2.30
2022-08-25T13:51:51.737Z,2.03
2022-08-25T13:54:31.147Z,2.40
2022-08-25T13:57:11.314Z,2.00
2022-08-25T13:59:42.720Z,2.27
2022-08-25T14:02:19.435Z,2.40
2022-08-25T14:04:51.234Z,2.10
2022-08-25T14:07:33.880Z,1.77
2022-08-25T14:10:08.029Z,2.00
2022-08-25T14:12:44.847Z,2.07
2022-08-25T14:15:29.615Z,1.73
2022-08-25T14:18:07.822Z,1.77
2022-08-25T14:20:38.879Z,2.03
2022-08-25T14:23:19.076Z,1.90
2022-08-25T14:25:51.017Z,2.00
2022-08-25T14:28:22.835Z,1.73
2022-08-25T14:30:56.825Z,2.07
2022-08-25T14:33:29.660Z,2.00
2022-08-25T14:36:02.593Z,1.73
2022-08-25T14:38:30.660Z,2.20
2022-08-25T14:41:00.506Z,2.00
2022-08-25T14:43:31.727Z,2.27
2022-08-25T14:46:03.507Z,1.80
2022-08-25T14:48:40.182Z,2.47
2022-08-25T14:51:15.313Z,1.97
2022-08-25T14:53:44.861Z,2.07
2022-08-25T14:56:14.461Z,2.13
2022-08-25T14:58:51.140Z,2.10
2022-08-25T15:01:29.306Z,2.07
2022-08-25T15:04:04.020Z,2.00
2022-08-25T15:06:32.816Z,2.30
2022-08-25T15:09:11.718Z,2.00
2022-08-25T15:11:45.551Z,2.00
2022-08-25T15:14:17.506Z,2.00
2022-08-25T15:16:50.094Z,2.10
2022-08-25T15:19:22.738Z,1.87
2022-08-25T15:21:52.382Z,2.07
2022-08-25T15:24:22.561Z,2.03
2022-08-25T15:26:55.270Z,1.80
2022-08-25T15:29:24.305Z,2.20
2022-08-25T15:31:52.548Z,2.20
2022-08-25T15:34:20.957Z,2.00
2022-08-25T15:36:49.155Z,2.37
2022-08-25T15:39:19.107Z,1.93
2022-08-25T15:41:49.509Z,2.17
2022-08-25T15:44:20.147Z,1.90
2022-08-25T15:46:49.800Z,1.80
2022-08-25T15:49:20.912Z,1.97
2022-08-25T15:51:52.805Z,1.83
2022-08-25T15:54:26.806Z,2.10
2022-08-25T15:56:56.138Z,1.80
2022-08-25T15:59:27.197Z,1.80
2022-08-25T16:01:56.332Z,1.93
2022-08-25T16:04:27.434Z,2.10
2022-08-25T16:06:56.221Z,1.90
2022-08-25T16:09:24.963Z,1.70
2022-08-25T16:11:56.948Z,2.00
2022-08-25T16:14:28.033Z,1.83
2022-08-25T16:16:58.343Z,1.67
2022-08-25T16:19:27.071Z,1.77
2022-08-25T16:21:55.117Z,2.03
2022-08-25T16:24:23.250Z,2.20
2022-08-25T16:26:51.968Z,2.13
2022-08-25T16:29:21.083Z,1.80
2022-08-25T16:31:53.331Z,1.90
2022-08-25T16:34:24.699Z,2.27
2022-08-25T16:36:56.596Z,1.87
2022-08-25T16:39:25.494Z,1.80
2022-08-25T16:41:53.805Z,1.90
2022-08-25T16:44:23.105Z,2.00
2022-08-25T16:46:54.388Z,2.40
2022-08-25T16:49:24.389Z,2.00
2022-08-25T16:51:57.296Z,1.83
2022-08-25T16:54:44.437Z,2.10
2022-08-25T16:57:12.972Z,2.30
2022-08-25T16:59:43.754Z,2.00
2022-08-25T17:02:13.751Z,2.27
2022-08-25T17:04:42.003Z,2.07
2022-08-25T17:07:10.578Z,2.00
2022-08-25T17:09:38.645Z,2.60
2022-08-25T17:12:09.042Z,2.30
2022-08-25T17:14:37.374Z,2.40
2022-08-25T17:17:07.057Z,2.30
2022-08-25T17:19:37.184Z,2.00
2022-08-25T17:22:08.033Z,2.17
2022-08-25T17:24:37.358Z,2.30
2022-08-25T17:27:09.193Z,2.20
2022-08-25T17:29:37.791Z,2.13
2022-08-25T17:32:06.903Z,2.07
2022-08-25T17:34:37.520Z,2.10
2022-08-25T17:37:06.766Z,2.33
2022-08-25T17:39:34.841Z,2.17
2022-08-25T17:42:03.458Z,2.07
2022-08-25T17:44:31.597Z,2.47
2022-08-25T17:46:59.927Z,1.90
2022-08-25T17:49:28.457Z,2.50
2022-08-25T17:51:58.144Z,2.27
2022-08-25T17:54:26.302Z,2.27
2022-08-25T17:56:56.072Z,2.30
2022-08-25T17:59:24.371Z,2.10
2022-08-25T18:01:55.488Z,2.30
2022-08-25T18:04:24.099Z,1.80
2022-08-25T18:06:59.161Z,2.10
2022-08-25T18:09:28.437Z,2.10
2022-08-25T18:11:56.587Z,2.10
2022-08-25T18:14:25.573Z,2.40
2022-08-25T18:16:55.137Z,2.40
2022-08-25T18:19:23.479Z,2.37
2022-08-25T18:21:51.873Z,2.23
2022-08-25T18:24:23.674Z,2.10
2022-08-25T18:26:52.036Z,2.67
2022-08-25T18:29:20.684Z,2.40
2022-08-25T18:31:49.023Z,2.23
2022-08-25T18:34:17.251Z,2.07
2022-08-25T18:36:46.951Z,2.27
2022-08-25T18:39:34.838Z,2.57
2022-08-25T18:42:06.338Z,2.50
2022-08-25T18:44:36.147Z,2.10
2022-08-25T18:47:07.688Z,2.60
2022-08-25T18:49:37.064Z,2.27
2022-08-25T18:52:06.689Z,2.30
2022-08-25T18:54:36.353Z,2.10
2022-08-25T18:57:08.239Z,2.60
2022-08-25T18:59:37.532Z,2.10
2022-08-25T19:02:06.558Z,2.53
2022-08-25T19:04:34.969Z,2.40
2022-08-25T19:07:03.332Z,2.27
2022-08-25T19:09:32.800Z,2.57
2022-08-25T19:12:01.374Z,2.40
2022-08-25T19:14:30.850Z,2.20
2022-08-25T19:16:59.127Z,2.50
2022-08-25T19:19:27.753Z,2.73
2022-08-25T19:21:55.943Z,2.33
2022-08-25T19:24:24.035Z,2.63
2022-08-25T19:26:54.645Z,2.80
2022-08-25T19:29:24.387Z,2.50
2022-08-25T19:31:54.321Z,2.43
2022-08-25T19:34:28.306Z,2.53
2022-08-25T19:37:01.444Z,2.53
2022-08-25T19:39:30.601Z,2.50
2022-08-25T19:41:59.258Z,2.27
2022-08-25T19:44:28.078Z,2.00
2022-08-25T19:46:58.756Z,2.30
2022-08-25T19:49:33.405Z,2.50
2022-08-25T19:52:04.689Z,2.70
2022-08-25T19:54:35.982Z,2.40
2022-08-25T19:57:06.614Z,2.70
2022-08-25T19:59:42.843Z,2.53
2022-08-25T20:02:17.814Z,2.20
2022-08-25T20:04:49.570Z,2.40
2022-08-25T20:07:21.186Z,2.43
2022-08-25T20:09:50.011Z,2.93
2022-08-25T20:12:20.527Z,2.70
2022-08-25T20:14:49.373Z,2.20
2022-08-25T20:17:24.652Z,2.67
2022-08-25T20:19:55.922Z,2.70
2022-08-25T20:22:26.819Z,2.50
2022-08-25T20:24:57.875Z,2.83
2022-08-25T20:27:32.026Z,2.40
2022-08-25T20:30:02.596Z,2.50
2022-08-25T20:32:34.874Z,2.70
2022-08-25T20:35:09.360Z,2.83
2022-08-25T20:37:41.876Z,2.57
2022-08-25T20:40:12.379Z,2.50
2022-08-25T20:42:41.238Z,2.77
2022-08-25T20:45:13.519Z,2.57
2022-08-25T20:47:44.302Z,3.00
2022-08-25T20:50:12.881Z,2.67
2022-08-25T20:52:43.873Z,2.93
2022-08-25T20:55:12.502Z,2.60
2022-08-25T20:57:40.929Z,2.90
2022-08-25T21:00:11.334Z,2.67
2022-08-25T21:02:39.575Z,2.57
2022-08-25T21:05:09.481Z,2.60
2022-08-25T21:07:37.596Z,2.10
2022-08-25T21:10:10.502Z,2.77
2022-08-25T21:12:42.738Z,2.37
2022-08-25T21:15:12.324Z,2.70
2022-08-25T21:17:40.517Z,2.83
2022-08-25T21:20:11.654Z,2.90
2022-08-25T21:22:39.906Z,2.80
2022-08-25T21:25:10.188Z,2.97
2022-08-25T21:27:38.260Z,2.63
2022-08-25T21:30:08.336Z,2.90
2022-08-25T21:32:37.453Z,2.93
2022-08-25T21:35:07.948Z,2.57
2022-08-25T21:37:37.596Z,3.03
2022-08-25T21:40:08.706Z,3.07
2022-08-25T21:42:36.976Z,2.90
2022-08-25T21:45:11.139Z,2.80
2022-08-25T21:47:42.304Z,3.20
2022-08-25T21:50:11.932Z,2.87
2022-08-25T21:52:42.418Z,3.20
2022-08-25T21:55:16.032Z,3.03
2022-08-25T21:57:44.628Z,2.67
2022-08-25T22:00:14.778Z,2.87
2022-08-25T22:02:45.852Z,3.10
2022-08-25T22:05:14.330Z,3.20
2022-08-25T22:07:45.027Z,2.57
2022-08-25T22:10:16.768Z,2.60
2022-08-25T22:12:46.290Z,2.93
2022-08-25T22:15:17.829Z,2.97
2022-08-25T22:17:48.211Z,3.13
2022-08-25T22:20:18.052Z,3.30
2022-08-25T22:22:48.162Z,3.00
2022-08-25T22:25:16.418Z,4.17
2022-08-25T22:27:44.545Z,2.90
2022-08-25T22:30:14.337Z,3.17
2022-08-25T22:32:42.710Z,2.97
2022-08-25T22:35:13.853Z,3.13
2022-08-25T22:37:42.848Z,2.83
2022-08-25T22:40:13.884Z,2.70
2022-08-25T22:42:47.396Z,3.07
2022-08-25T22:45:16.151Z,2.73
2022-08-25T22:47:45.145Z,2.80
2022-08-25T22:50:13.593Z,3.27
2022-08-25T22:52:42.376Z,3.23
2022-08-25T22:55:13.009Z,3.30
2022-08-25T22:57:41.939Z,3.37
2022-08-25T23:00:14.941Z,2.90
2022-08-25T23:02:45.505Z,3.17
2022-08-25T23:05:15.994Z,3.10
2022-08-25T23:07:44.193Z,3.07
2022-08-25T23:10:14.629Z,3.00
2022-08-25T23:12:44.042Z,3.30
2022-08-25T23:15:14.088Z,3.40
2022-08-25T23:17:42.286Z,3.37
2022-08-25T23:20:25.772Z,2.67
2022-08-25T23:22:54.481Z,3.27
2022-08-25T23:25:23.941Z,3.30
2022-08-25T23:27:52.113Z,3.40
2022-08-25T23:30:20.508Z,3.40
2022-08-25T23:32:49.763Z,3.20
2022-08-25T23:35:18.431Z,3.10
2022-08-25T23:37:48.249Z,3.40
2022-08-25T23:40:19.238Z,3.07
2022-08-25T23:42:49.151Z,3.10
2022-08-25T23:45:17.509Z,3.23
2022-08-25T23:47:45.538Z,3.50
2022-08-25T23:50:14.067Z,2.93
2022-08-25T23:52:42.144Z,3.37
2022-08-25T23:55:10.877Z,3.07
2022-08-25T23:57:39.050Z,3.53
